Terminal Aerodrome Forecast
Issued by NWS

Home | Current Version | Previous Version | Text Only | Print | Product List | Glossary On
Versions: 1 2 3 4 5 6 7 8 9 10 11 12 13 14 15
000
FTUS43 KAPX 281130
TAFTVC
TAF
KTVC 281130Z 2812/0112 15007KT P6SM VCSH OVC060
     FM281300 15008KT 5SM -SHRA BR OVC040
     FM281500 14008KT 5SM -SHRA BR OVC015
     FM281900 16009KT 3SM -SHRA BR OVC008
     FM282100 16007KT 2SM -SHRA BR OVC006
     FM010000 VRB03KT 1SM -SHRA BR OVC003
     FM010600 36004KT 1SM -SHRA BR OVC003
     FM011000 01009KT 2SM -SHRASN BR OVC004=

USA.gov is the U.S. government's official web portal to all federal, state and local government web resources and services.